Amavisti — V2CR5 — position and weather

sailwx.info

Track history (hours):
 
Tides and Currents Weather Stations Pressure Air Temp Water Temp Dewpoint Dewpoint Depression Visibility Wind Speed Wind Dir Waves Ship Positions

Amavisti

Last reported at 2015-Jul-03 21:30 UTC. Time now 2015-Jul-03 22:02 UTC.
Position N 36°31' E 001°17'.

Length 116 m; draft 7.1 m.

Type: Cargo ship. MMSI: 305086000.

Date/timePositionNaut miles runAvg speedWind from/ knotsBaromVisibWave heightAir tempDewpointWater temp
2015-Jul-03 21:30N 36°31' E 001°17'0 0.0
2015-Jul-03 20:24N 36°31' E 001°17'0 0.0
2015-Jul-03 19:30N 36°31' E 001°17'0 0.0
2015-Jul-03 17:06N 36°31' E 001°17'0 0.0
2015-Jul-03 16:32N 36°31' E 001°17'0 0.0
2015-Jul-03 15:32N 36°31' E 001°17'0 0.0
2015-Jul-03 07:24N 36°31' E 001°17'0 0.0
2015-Jul-03 06:24N 36°31' E 001°17'0 0.0
2015-Jul-02 02:18N 36°31' E 001°17'0 0.0
2015-Jul-02 01:30N 36°31' E 001°17'0 0.1
2015-Jul-02 00:12N 36°31' E 001°17'0 0.0
2015-Jul-01 23:29N 36°31' E 001°17'0 0.0
2015-Jul-01 22:30N 36°31' E 001°17'0 0.0
2015-Jul-01 21:23N 36°31' E 001°17'0 0.0
2015-Jul-01 19:17N 36°31' E 001°17'0 0.0
2015-Jul-01 18:30N 36°31' E 001°17'0 0.0
2015-Jul-01 17:23N 36°32' E 001°17'0 0.0
2015-Jul-01 16:30N 36°32' E 001°17'0 0.0
2015-Jul-01 15:29N 36°32' E 001°17'0 0.0
2015-Jul-01 12:23N 36°31' E 001°17'0 0.0
2015-Jul-01 11:32N 36°31' E 001°17'0 0.0
2015-Jul-01 10:32N 36°31' E 001°17'0 0.0
2015-Jul-01 09:29N 36°31' E 001°17'0 0.0
2015-Jul-01 08:17N 36°31' E 001°17'0 0.0
2015-Jul-01 07:30N 36°31' E 001°17'0 0.0
2015-Jul-01 06:18N 36°31' E 001°17'0 0.0
2015-Jul-01 05:24N 36°31' E 001°17'0 0.0
2015-Jul-01 04:29N 36°31' E 001°17'0 0.0
2015-Jul-01 03:30N 36°31' E 001°17'0 0.0
2015-Jul-01 02:30N 36°31' E 001°17'0 0.0
2015-Jul-01 01:32N 36°31' E 001°17'0 0.1
2015-Jul-01 00:24N 36°31' E 001°17'0 0.0
2015-Jun-30 23:26N 36°31' E 001°17'0 0.0
2015-Jun-30 22:32N 36°31' E 001°17'0 0.0
2015-Jun-30 21:30N 36°31' E 001°17'0 0.0
2015-Jun-30 20:29N 36°31' E 001°17'0 0.0
2015-Jun-30 19:32N 36°31' E 001°17'0 0.0
2015-Jun-30 18:26N 36°31' E 001°17'0 0.0
2015-Jun-30 17:29N 36°31' E 001°17'0 0.0
2015-Jun-30 16:17N 36°31' E 001°17'0 0.0
2015-Jun-30 15:29N 36°31' E 001°17'0 0.0
2015-Jun-30 14:29N 36°31' E 001°17'0 0.0
2015-Jun-30 13:32N 36°31' E 001°17'0 0.0
2015-Jun-30 12:24N 36°31' E 001°17'0 0.0
2015-Jun-30 11:32N 36°31' E 001°17'0 0.0
2015-Jun-30 10:29N 36°31' E 001°17'0 0.0
2015-Jun-30 09:32N 36°31' E 001°17'0 0.0
2015-Jun-30 08:32N 36°31' E 001°17'0 0.0
2015-Jun-30 07:29N 36°31' E 001°17'0 0.1
2015-Jun-30 06:33N 36°31' E 001°17'8 7.7
2015-Jun-30 05:33N 36°33' E 001°08'9 8.8
2015-Jun-30 04:33N 36°32' E 000°57'18 8.8
2015-Jun-30 02:32N 36°31' E 000°35'9 9.2
2015-Jun-30 01:32N 36°30' E 000°23'10 9.1
2015-Jun-30 00:29N 36°29' E 000°11'9 9.1
2015-Jun-29 23:30N 36°28' E 000°00'8 8.8
2015-Jun-29 22:33N 36°27' W 000°10'9 8.8
2015-Jun-29 21:33N 36°26' W 000°21'9 8.8
2015-Jun-29 20:33N 36°25' W 000°32'9 8.8
2015-Jun-29 19:33N 36°24' W 000°42'9 8.5
2015-Jun-29 18:33N 36°23' W 000°53'9 8.5
2015-Jun-29 17:33N 36°22' W 001°04'18 8.5
2015-Jun-29 15:28N 36°20' W 001°25'8 8.7
2015-Jun-29 14:33N 36°20' W 001°35'10 8.9
2015-Jun-29 13:23N 36°18' W 001°48'7 8.6
2015-Jun-29 12:32N 36°17' W 001°57'38 8.7
2015-Jun-29 08:08N 36°13' W 002°44'5 9.3
2015-Jun-29 07:33N 36°13' W 002°51'1010.3
2015-Jun-29 06:33N 36°12' W 003°04'1111.0
2015-Jun-29 05:33N 36°10' W 003°17'1111.3
2015-Jun-29 04:33N 36°09' W 003°31'8311.7
2015-Jun-28 21:29N 36°00' W 005°13'1212.4
2015-Jun-28 20:33N 35°58' W 005°27'11210.2
2015-Jun-28 09:33N 36°14' W 007°44'1010.0
2015-Jun-28 08:33N 36°16' W 007°56'2827.2
2015-Jun-28 07:33N 36°24' W 008°29'4 3.8
2015-Jun-28 06:33N 36°25' W 008°34'4 3.9
2015-Jun-28 05:33N 36°26' W 008°38'7 6.9
2015-Jun-28 04:32N 36°27' W 008°47'1010.4
2015-Jun-28 03:33N 36°30' W 008°59'1010.4
2015-Jun-28 02:33N 36°33' W 009°12'1010.0
2015-Jun-28 01:33N 36°38' W 009°22'1110.6
2015-Jun-28 00:33N 36°45' W 009°32'1010.1
2015-Jun-27 23:33N 36°55' W 009°36'1110.5
2015-Jun-27 22:33N 37°05' W 009°38'1110.6
2015-Jun-27 21:33N 37°15' W 009°42'1110.6
2015-Jun-27 20:33N 37°26' W 009°44'1110.8
2015-Jun-27 19:33N 37°36' W 009°48'1110.7
2015-Jun-27 18:33N 37°47' W 009°51'1111.1
2015-Jun-27 17:33N 37°58' W 009°55'1111.4
2015-Jun-27 16:33N 38°09' W 009°57'1111.3
2015-Jun-27 15:33N 38°20' W 010°01'1110.9
2015-Jun-27 14:33N 38°30' W 010°04'1111.0
2015-Jun-27 13:33N 38°41' W 010°07'1110.9
2015-Jun-27 12:33N 38°52' W 010°07'1110.9
2015-Jun-27 11:33N 39°03' W 010°07'1110.6
2015-Jun-27 10:33N 39°13' W 010°07'1110.8
2015-Jun-27 09:33N 39°24' W 010°07'1110.8
2015-Jun-27 08:32N 39°35' W 010°07'1010.6
2015-Jun-27 07:33N 39°45' W 010°07'1010.5
2015-Jun-27 06:33N 39°56' W 010°07'1110.8
2015-Jun-27 05:33N 40°07' W 010°07'1110.9
2015-Jun-27 04:33N 40°18' W 010°07'1110.8
2015-Jun-27 03:33N 40°29' W 010°07'4410.7
2015-Jun-26 23:23N 41°13' W 010°08'910.7
2015-Jun-26 22:32N 41°22' W 010°08'1110.8
2015-Jun-26 21:33N 41°33' W 010°08'1110.6
2015-Jun-26 20:30N 41°44' W 010°07'1011.0
2015-Jun-26 19:33N 41°54' W 010°07'1110.7
2015-Jun-26 18:29N 42°06' W 010°07'1110.6
2015-Jun-26 17:28N 42°16' W 010°07'1010.4
2015-Jun-26 16:32N 42°26' W 010°07'  
2015-Jun-24 08:33N 49°56' W 003°24'10 9.5
2015-Jun-24 07:30N 49°56' W 003°08'1111.8
2015-Jun-24 06:33N 50°00' W 002°52'1212.1
2015-Jun-24 05:33N 50°04' W 002°34'1211.9
2015-Jun-24 04:33N 50°07' W 002°16'1111.1
2015-Jun-24 03:33N 50°10' W 001°60'28 9.2
2015-Jun-24 00:27N 50°17' W 001°17'8 8.7
2015-Jun-23 23:33N 50°19' W 001°05'  
Track history (hours):
 
Tides and Currents Weather Stations Pressure Air Temp Water Temp Dewpoint Dewpoint Depression Visibility Wind Speed Wind Dir Waves Ship Positions

Amavisti

Last reported at 2015-Jul-03 21:30 UTC. Time now 2015-Jul-03 22:02 UTC.
Position N 36°31' E 001°17'.

Length 116 m; draft 7.1 m.

Type: Cargo ship. MMSI: 305086000.

Date/timePositionNaut miles runAvg speedWind from/ knotsBaromVisibWave heightAir tempDewpointWater temp
2015-Jul-03 21:30N 36°31' E 001°17'0 0.0
2015-Jul-03 20:24N 36°31' E 001°17'0 0.0
2015-Jul-03 19:30N 36°31' E 001°17'0 0.0
2015-Jul-03 17:06N 36°31' E 001°17'0 0.0
2015-Jul-03 16:32N 36°31' E 001°17'0 0.0
2015-Jul-03 15:32N 36°31' E 001°17'0 0.0
2015-Jul-03 07:24N 36°31' E 001°17'0 0.0
2015-Jul-03 06:24N 36°31' E 001°17'0 0.0
2015-Jul-02 02:18N 36°31' E 001°17'0 0.0
2015-Jul-02 01:30N 36°31' E 001°17'0 0.1
2015-Jul-02 00:12N 36°31' E 001°17'0 0.0
2015-Jul-01 23:29N 36°31' E 001°17'0 0.0
2015-Jul-01 22:30N 36°31' E 001°17'0 0.0
2015-Jul-01 21:23N 36°31' E 001°17'0 0.0
2015-Jul-01 19:17N 36°31' E 001°17'0 0.0
2015-Jul-01 18:30N 36°31' E 001°17'0 0.0
2015-Jul-01 17:23N 36°32' E 001°17'0 0.0
2015-Jul-01 16:30N 36°32' E 001°17'0 0.0
2015-Jul-01 15:29N 36°32' E 001°17'0 0.0
2015-Jul-01 12:23N 36°31' E 001°17'0 0.0
2015-Jul-01 11:32N 36°31' E 001°17'0 0.0
2015-Jul-01 10:32N 36°31' E 001°17'0 0.0
2015-Jul-01 09:29N 36°31' E 001°17'0 0.0
2015-Jul-01 08:17N 36°31' E 001°17'0 0.0
2015-Jul-01 07:30N 36°31' E 001°17'0 0.0
2015-Jul-01 06:18N 36°31' E 001°17'0 0.0
2015-Jul-01 05:24N 36°31' E 001°17'0 0.0
2015-Jul-01 04:29N 36°31' E 001°17'0 0.0
2015-Jul-01 03:30N 36°31' E 001°17'0 0.0
2015-Jul-01 02:30N 36°31' E 001°17'0 0.0
2015-Jul-01 01:32N 36°31' E 001°17'0 0.1
2015-Jul-01 00:24N 36°31' E 001°17'0 0.0
2015-Jun-30 23:26N 36°31' E 001°17'0 0.0
2015-Jun-30 22:32N 36°31' E 001°17'0 0.0
2015-Jun-30 21:30N 36°31' E 001°17'0 0.0
2015-Jun-30 20:29N 36°31' E 001°17'0 0.0
2015-Jun-30 19:32N 36°31' E 001°17'0 0.0
2015-Jun-30 18:26N 36°31' E 001°17'0 0.0
2015-Jun-30 17:29N 36°31' E 001°17'0 0.0
2015-Jun-30 16:17N 36°31' E 001°17'0 0.0
2015-Jun-30 15:29N 36°31' E 001°17'0 0.0
2015-Jun-30 14:29N 36°31' E 001°17'0 0.0
2015-Jun-30 13:32N 36°31' E 001°17'0 0.0
2015-Jun-30 12:24N 36°31' E 001°17'0 0.0
2015-Jun-30 11:32N 36°31' E 001°17'0 0.0
2015-Jun-30 10:29N 36°31' E 001°17'0 0.0
2015-Jun-30 09:32N 36°31' E 001°17'0 0.0
2015-Jun-30 08:32N 36°31' E 001°17'0 0.0
2015-Jun-30 07:29N 36°31' E 001°17'0 0.1
2015-Jun-30 06:33N 36°31' E 001°17'8 7.7
2015-Jun-30 05:33N 36°33' E 001°08'9 8.8
2015-Jun-30 04:33N 36°32' E 000°57'18 8.8
2015-Jun-30 02:32N 36°31' E 000°35'9 9.2
2015-Jun-30 01:32N 36°30' E 000°23'10 9.1
2015-Jun-30 00:29N 36°29' E 000°11'9 9.1
2015-Jun-29 23:30N 36°28' E 000°00'8 8.8
2015-Jun-29 22:33N 36°27' W 000°10'9 8.8
2015-Jun-29 21:33N 36°26' W 000°21'9 8.8
2015-Jun-29 20:33N 36°25' W 000°32'9 8.8
2015-Jun-29 19:33N 36°24' W 000°42'9 8.5
2015-Jun-29 18:33N 36°23' W 000°53'9 8.5
2015-Jun-29 17:33N 36°22' W 001°04'18 8.5
2015-Jun-29 15:28N 36°20' W 001°25'8 8.7
2015-Jun-29 14:33N 36°20' W 001°35'10 8.9
2015-Jun-29 13:23N 36°18' W 001°48'7 8.6
2015-Jun-29 12:32N 36°17' W 001°57'38 8.7
2015-Jun-29 08:08N 36°13' W 002°44'5 9.3
2015-Jun-29 07:33N 36°13' W 002°51'1010.3
2015-Jun-29 06:33N 36°12' W 003°04'1111.0
2015-Jun-29 05:33N 36°10' W 003°17'1111.3
2015-Jun-29 04:33N 36°09' W 003°31'8311.7
2015-Jun-28 21:29N 36°00' W 005°13'1212.4
2015-Jun-28 20:33N 35°58' W 005°27'11210.2
2015-Jun-28 09:33N 36°14' W 007°44'1010.0
2015-Jun-28 08:33N 36°16' W 007°56'2827.2
2015-Jun-28 07:33N 36°24' W 008°29'4 3.8
2015-Jun-28 06:33N 36°25' W 008°34'4 3.9
2015-Jun-28 05:33N 36°26' W 008°38'7 6.9
2015-Jun-28 04:32N 36°27' W 008°47'1010.4
2015-Jun-28 03:33N 36°30' W 008°59'1010.4
2015-Jun-28 02:33N 36°33' W 009°12'1010.0
2015-Jun-28 01:33N 36°38' W 009°22'1110.6
2015-Jun-28 00:33N 36°45' W 009°32'1010.1
2015-Jun-27 23:33N 36°55' W 009°36'1110.5
2015-Jun-27 22:33N 37°05' W 009°38'1110.6
2015-Jun-27 21:33N 37°15' W 009°42'1110.6
2015-Jun-27 20:33N 37°26' W 009°44'1110.8
2015-Jun-27 19:33N 37°36' W 009°48'1110.7
2015-Jun-27 18:33N 37°47' W 009°51'1111.1
2015-Jun-27 17:33N 37°58' W 009°55'1111.4
2015-Jun-27 16:33N 38°09' W 009°57'1111.3
2015-Jun-27 15:33N 38°20' W 010°01'1110.9
2015-Jun-27 14:33N 38°30' W 010°04'1111.0
2015-Jun-27 13:33N 38°41' W 010°07'1110.9
2015-Jun-27 12:33N 38°52' W 010°07'1110.9
2015-Jun-27 11:33N 39°03' W 010°07'1110.6
2015-Jun-27 10:33N 39°13' W 010°07'1110.8
2015-Jun-27 09:33N 39°24' W 010°07'1110.8
2015-Jun-27 08:32N 39°35' W 010°07'1010.6
2015-Jun-27 07:33N 39°45' W 010°07'1010.5
2015-Jun-27 06:33N 39°56' W 010°07'1110.8
2015-Jun-27 05:33N 40°07' W 010°07'1110.9
2015-Jun-27 04:33N 40°18' W 010°07'1110.8
2015-Jun-27 03:33N 40°29' W 010°07'4410.7
2015-Jun-26 23:23N 41°13' W 010°08'910.7
2015-Jun-26 22:32N 41°22' W 010°08'1110.8
2015-Jun-26 21:33N 41°33' W 010°08'1110.6
2015-Jun-26 20:30N 41°44' W 010°07'1011.0
2015-Jun-26 19:33N 41°54' W 010°07'1110.7
2015-Jun-26 18:29N 42°06' W 010°07'1110.6
2015-Jun-26 17:28N 42°16' W 010°07'1010.4
2015-Jun-26 16:32N 42°26' W 010°07'  
2015-Jun-24 08:33N 49°56' W 003°24'10 9.5
2015-Jun-24 07:30N 49°56' W 003°08'1111.8
2015-Jun-24 06:33N 50°00' W 002°52'1212.1
2015-Jun-24 05:33N 50°04' W 002°34'1211.9
2015-Jun-24 04:33N 50°07' W 002°16'1111.1
2015-Jun-24 03:33N 50°10' W 001°60'28 9.2
2015-Jun-24 00:27N 50°17' W 001°17'8 8.7
2015-Jun-23 23:33N 50°19' W 001°05'  

Dump ship's entire track history